createdAt,value
2018-03-22T00:02:19.480Z,49.50
2018-03-22T00:04:47.461Z,25.07
2018-03-22T00:07:16.345Z,22.67
2018-03-22T00:09:44.284Z,24.27
2018-03-22T00:12:13.144Z,24.17
2018-03-22T00:14:41.453Z,23.50
2018-03-22T00:17:09.519Z,22.97
2018-03-22T00:19:37.490Z,23.37
2018-03-22T00:22:05.584Z,24.40
2018-03-22T00:24:33.738Z,23.97
2018-03-22T00:27:01.607Z,24.80
2018-03-22T00:29:30.280Z,22.93
2018-03-22T00:31:58.454Z,22.93
2018-03-22T00:34:26.429Z,22.23
2018-03-22T00:36:54.513Z,26.70
2018-03-22T00:39:23.516Z,25.40
2018-03-22T00:41:51.474Z,24.40
2018-03-22T00:44:20.139Z,25.10
2018-03-22T00:46:47.904Z,26.30
2018-03-22T00:49:17.059Z,23.00
2018-03-22T00:51:45.069Z,27.70
2018-03-22T00:54:13.139Z,24.40
2018-03-22T00:56:41.205Z,25.40
2018-03-22T00:59:08.995Z,24.47
2018-03-22T01:01:37.899Z,24.10
2018-03-22T01:04:06.039Z,27.33
2018-03-22T01:06:34.109Z,26.10
2018-03-22T01:09:02.290Z,24.43
2018-03-22T01:11:30.149Z,24.40
2018-03-22T01:13:58.219Z,26.27
2018-03-22T01:16:26.293Z,24.87
2018-03-22T01:18:54.463Z,25.23
2018-03-22T01:21:22.434Z,24.60
2018-03-22T01:23:50.424Z,24.80
2018-03-22T01:26:18.475Z,21.27
2018-03-22T01:28:46.748Z,25.47
2018-03-22T01:31:14.622Z,23.60
2018-03-22T01:33:42.479Z,26.90
2018-03-22T01:36:10.247Z,25.57
2018-03-22T01:38:37.919Z,23.83
2018-03-22T01:41:07.408Z,24.50
2018-03-22T01:43:35.585Z,21.37
2018-03-22T01:46:03.658Z,20.27
2018-03-22T01:48:31.631Z,18.80
2018-03-22T01:50:59.796Z,19.83
2018-03-22T01:53:27.982Z,20.97
2018-03-22T01:55:55.767Z,19.70
2018-03-22T01:58:23.629Z,19.97
2018-03-22T02:00:52.387Z,18.77
2018-03-22T02:03:20.474Z,19.30
2018-03-22T02:05:50.171Z,18.53
2018-03-22T02:08:18.239Z,19.03
2018-03-22T02:10:46.218Z,17.73
2018-03-22T02:13:14.383Z,19.23
2018-03-22T02:15:42.559Z,18.73
2018-03-22T02:18:10.625Z,17.63
2018-03-22T02:20:38.404Z,18.17
2018-03-22T02:23:07.894Z,17.07
2018-03-22T02:25:35.779Z,18.03
2018-03-22T02:28:03.728Z,19.53
2018-03-22T02:30:31.908Z,18.30
2018-03-22T02:33:00.177Z,17.97
2018-03-22T02:35:28.151Z,17.67
2018-03-22T02:37:56.320Z,19.37
2018-03-22T02:40:24.286Z,20.70
2018-03-22T02:42:52.118Z,19.73
2018-03-22T02:45:20.834Z,19.47
2018-03-22T02:47:49.048Z,21.00
2018-03-22T02:50:17.910Z,18.77
2018-03-22T02:52:46.484Z,19.77
2018-03-22T02:55:14.252Z,18.77
2018-03-22T02:57:42.418Z,21.00
2018-03-22T03:00:10.918Z,19.37
2018-03-22T03:02:38.873Z,17.10
2018-03-22T03:05:06.639Z,18.50
2018-03-22T03:07:34.419Z,18.23
2018-03-22T03:10:02.466Z,17.67
2018-03-22T03:12:30.550Z,17.10
2018-03-22T03:14:58.711Z,19.77
2018-03-22T03:17:26.718Z,18.40
2018-03-22T03:19:56.898Z,18.57
2018-03-22T03:22:24.894Z,17.93
2018-03-22T03:24:52.938Z,18.10
2018-03-22T03:27:20.920Z,21.47
2018-03-22T03:29:48.894Z,19.83
2018-03-22T03:32:16.842Z,20.37
2018-03-22T03:34:44.608Z,21.03
2018-03-22T03:37:12.607Z,22.83
2018-03-22T03:39:40.544Z,22.60
2018-03-22T03:42:08.749Z,21.07
2018-03-22T03:44:36.788Z,21.47
2018-03-22T03:47:04.861Z,22.70
2018-03-22T03:49:32.630Z,23.10
2018-03-22T03:52:00.614Z,21.90
2018-03-22T03:54:29.143Z,20.60
2018-03-22T03:56:57.249Z,22.87
2018-03-22T03:59:25.334Z,21.20
2018-03-22T04:01:53.388Z,23.70
2018-03-22T04:04:21.673Z,22.37
2018-03-22T04:06:49.641Z,21.40
2018-03-22T04:09:17.498Z,20.60
2018-03-22T04:11:45.676Z,22.60
2018-03-22T04:14:13.751Z,23.23
2018-03-22T04:16:41.644Z,21.73
2018-03-22T04:19:10.398Z,21.83
2018-03-22T04:21:38.476Z,22.97
2018-03-22T04:24:06.354Z,21.13
2018-03-22T04:26:34.229Z,21.50
2018-03-22T04:29:02.167Z,21.90
2018-03-22T04:31:30.339Z,21.60
2018-03-22T04:33:58.586Z,24.00
2018-03-22T04:36:26.833Z,24.60
2018-03-22T04:38:55.612Z,23.20
2018-03-22T04:41:24.363Z,22.90
2018-03-22T04:43:52.432Z,21.67
2018-03-22T04:46:20.407Z,23.77
2018-03-22T04:48:48.303Z,22.90
2018-03-22T04:51:16.237Z,21.43
2018-03-22T04:53:44.223Z,23.33
2018-03-22T04:56:13.748Z,24.93
2018-03-22T04:58:42.628Z,22.27
2018-03-22T05:01:10.467Z,21.20
2018-03-22T05:03:38.546Z,22.93
2018-03-22T05:06:06.624Z,20.13
2018-03-22T05:08:34.377Z,21.10
2018-03-22T05:11:02.588Z,22.07
2018-03-22T05:13:31.439Z,22.83
2018-03-22T05:15:59.368Z,23.03
2018-03-22T05:18:27.393Z,23.57
2018-03-22T05:20:55.362Z,22.43
2018-03-22T05:23:24.645Z,22.80
2018-03-22T05:25:52.406Z,24.37
2018-03-22T05:28:20.486Z,22.37
2018-03-22T05:30:48.569Z,22.17
2018-03-22T05:33:16.528Z,23.00
2018-03-22T05:35:44.351Z,20.63
2018-03-22T05:38:13.166Z,20.37
2018-03-22T05:40:41.545Z,20.57
2018-03-22T05:43:09.413Z,20.43
2018-03-22T05:45:37.492Z,21.27
2018-03-22T05:48:05.397Z,19.33
2018-03-22T05:50:34.136Z,20.17
2018-03-22T05:53:03.151Z,19.67
2018-03-22T05:55:31.320Z,20.13
2018-03-22T05:58:00.100Z,19.67
2018-03-22T06:00:28.283Z,18.70
2018-03-22T06:02:57.253Z,18.67
2018-03-22T06:05:25.535Z,19.40
2018-03-22T06:07:53.499Z,19.50
2018-03-22T06:10:21.372Z,20.67
2018-03-22T06:12:49.232Z,21.03
2018-03-22T06:15:17.426Z,21.00
2018-03-22T06:17:46.302Z,23.10
2018-03-22T06:20:14.267Z,19.13
2018-03-22T06:22:42.440Z,19.00
2018-03-22T06:25:10.713Z,20.63
2018-03-22T06:27:38.783Z,21.30
2018-03-22T06:30:06.762Z,19.60
2018-03-22T06:32:34.618Z,18.50
2018-03-22T06:35:02.593Z,19.27
2018-03-22T06:37:30.665Z,19.40
2018-03-22T06:39:58.420Z,19.70
2018-03-22T06:42:26.715Z,21.13
2018-03-22T06:44:54.672Z,20.80
2018-03-22T06:47:22.633Z,20.13
2018-03-22T06:49:50.401Z,20.63
2018-03-22T06:52:18.378Z,19.67
2018-03-22T06:54:46.448Z,19.13
2018-03-22T06:57:14.419Z,20.23
2018-03-22T06:59:42.424Z,22.33
2018-03-22T07:02:11.272Z,21.10
2018-03-22T07:04:39.233Z,19.47
2018-03-22T07:07:07.101Z,21.60
2018-03-22T07:09:35.074Z,20.77
2018-03-22T07:12:03.079Z,22.63
2018-03-22T07:14:31.860Z,20.87
2018-03-22T07:17:00.619Z,20.80
2018-03-22T07:19:28.810Z,21.77
2018-03-22T07:21:56.957Z,22.10
2018-03-22T07:24:24.944Z,20.40
2018-03-22T07:26:53.006Z,22.33
2018-03-22T07:29:21.073Z,21.97
2018-03-22T07:31:49.283Z,21.73
2018-03-22T07:34:18.141Z,21.73
2018-03-22T07:36:46.178Z,22.90
2018-03-22T07:39:14.154Z,22.73
2018-03-22T07:41:42.540Z,23.03
2018-03-22T07:44:13.082Z,22.77
2018-03-22T07:46:41.247Z,23.30
2018-03-22T07:49:09.323Z,25.90
2018-03-22T07:51:37.502Z,26.57
2018-03-22T07:54:05.711Z,21.30
2018-03-22T07:56:34.360Z,20.93
2018-03-22T07:59:02.325Z,21.00
2018-03-22T08:01:30.199Z,24.17
2018-03-22T08:03:58.023Z,24.57
2018-03-22T08:06:26.058Z,23.60
2018-03-22T08:08:53.992Z,21.47
2018-03-22T08:11:22.275Z,24.43
2018-03-22T08:13:50.259Z,21.03
2018-03-22T08:16:18.120Z,24.37
2018-03-22T08:18:46.020Z,23.10
2018-03-22T08:21:14.683Z,22.83
2018-03-22T08:23:42.631Z,22.07
2018-03-22T08:26:10.914Z,22.70
2018-03-22T08:28:38.882Z,22.27
2018-03-22T08:31:06.838Z,22.40
2018-03-22T08:33:34.603Z,22.37
2018-03-22T08:36:02.796Z,21.60
2018-03-22T08:38:30.736Z,26.70
2018-03-22T08:40:58.943Z,25.57
2018-03-22T08:43:26.879Z,25.83
2018-03-22T08:45:54.880Z,22.40
2018-03-22T08:48:22.826Z,24.20
2018-03-22T08:50:50.997Z,26.03
2018-03-22T08:53:18.896Z,24.13
2018-03-22T08:55:47.754Z,26.10
2018-03-22T08:58:15.639Z,21.70
2018-03-22T09:00:43.689Z,23.27
2018-03-22T09:03:11.556Z,22.33
2018-03-22T09:05:39.524Z,24.07
2018-03-22T09:08:07.725Z,19.40
2018-03-22T09:10:35.668Z,18.50
2018-03-22T09:13:03.545Z,17.97
2018-03-22T09:15:31.422Z,18.30
2018-03-22T09:17:59.573Z,19.47
2018-03-22T09:20:27.436Z,19.97
2018-03-22T09:22:55.419Z,19.10
2018-03-22T09:25:23.372Z,19.27
2018-03-22T09:27:51.677Z,19.30
2018-03-22T09:30:19.940Z,18.60
2018-03-22T09:32:47.873Z,18.00
2018-03-22T09:35:15.863Z,18.47
2018-03-22T09:37:43.958Z,21.27
2018-03-22T09:40:11.905Z,19.27
2018-03-22T09:42:39.795Z,20.90
2018-03-22T09:45:08.018Z,18.63
2018-03-22T09:47:36.020Z,19.80
2018-03-22T09:50:04.081Z,21.13
2018-03-22T09:52:32.721Z,20.63
2018-03-22T09:55:01.249Z,21.80
2018-03-22T09:57:29.133Z,19.70
2018-03-22T09:59:57.023Z,19.07
2018-03-22T10:02:26.079Z,21.83
2018-03-22T10:04:53.957Z,21.53
2018-03-22T10:07:22.029Z,22.47
2018-03-22T10:09:50.724Z,22.13
2018-03-22T10:12:18.702Z,24.03
2018-03-22T10:14:46.635Z,23.13
2018-03-22T10:17:14.611Z,22.33
2018-03-22T10:19:42.579Z,24.03
2018-03-22T10:22:10.469Z,24.70
2018-03-22T10:24:38.514Z,23.43
2018-03-22T10:27:06.580Z,24.43
2018-03-22T10:29:34.549Z,25.40
2018-03-22T10:32:02.929Z,35.93
2018-03-22T10:34:31.104Z,25.27
2018-03-22T10:36:59.174Z,32.10
2018-03-22T10:39:27.266Z,26.73
2018-03-22T10:41:55.521Z,32.83
2018-03-22T10:44:23.287Z,31.47
2018-03-22T10:46:51.455Z,26.53
2018-03-22T10:49:19.342Z,34.17
2018-03-22T10:51:47.398Z,31.20
2018-03-22T10:54:15.572Z,29.87
2018-03-22T10:56:43.643Z,28.50
2018-03-22T10:59:11.872Z,25.03
2018-03-22T11:01:45.419Z,25.23
2018-03-22T11:04:13.502Z,26.70
2018-03-22T11:06:46.787Z,26.80
2018-03-22T11:09:14.950Z,24.70
2018-03-22T11:11:42.818Z,24.30
2018-03-22T11:14:10.788Z,24.67
2018-03-22T11:16:38.958Z,20.70
2018-03-22T11:19:06.967Z,21.50
2018-03-22T11:21:35.925Z,20.50
2018-03-22T11:24:04.020Z,22.93
2018-03-22T11:26:32.049Z,22.37
2018-03-22T11:28:59.832Z,23.33
2018-03-22T11:31:27.589Z,22.13
2018-03-22T11:33:55.559Z,22.53
2018-03-22T11:36:23.471Z,24.70
2018-03-22T11:38:52.220Z,21.20
2018-03-22T11:41:20.255Z,22.37
2018-03-22T11:43:48.974Z,21.10
2018-03-22T11:46:16.835Z,21.47
2018-03-22T11:48:44.604Z,20.33
2018-03-22T11:51:12.579Z,20.80
2018-03-22T11:53:40.867Z,19.30
2018-03-22T11:56:08.914Z,19.50
2018-03-22T11:58:37.217Z,19.93
2018-03-22T12:01:05.063Z,17.40
2018-03-22T12:03:33.228Z,19.40
2018-03-22T12:06:01.407Z,19.73
2018-03-22T12:08:29.270Z,19.23
2018-03-22T12:10:57.362Z,19.93
2018-03-22T12:13:25.313Z,21.33
2018-03-22T12:15:53.344Z,21.33
2018-03-22T12:18:21.042Z,21.47
2018-03-22T12:20:48.911Z,20.27
2018-03-22T12:23:16.776Z,21.33
2018-03-22T12:25:45.833Z,21.67
2018-03-22T12:28:13.846Z,23.67
2018-03-22T12:30:41.908Z,22.40
2018-03-22T12:33:10.182Z,20.47
2018-03-22T12:35:38.265Z,21.40
2018-03-22T12:38:06.224Z,25.00
2018-03-22T12:40:34.200Z,22.53
2018-03-22T12:43:02.170Z,22.70
2018-03-22T12:45:30.237Z,21.97
2018-03-22T12:47:58.196Z,20.23
2018-03-22T12:50:26.172Z,21.93
2018-03-22T12:52:54.139Z,22.90
2018-03-22T12:55:22.308Z,22.77
2018-03-22T12:57:50.387Z,25.03
2018-03-22T13:00:18.386Z,26.37
2018-03-22T13:02:46.336Z,28.20
2018-03-22T13:05:14.284Z,28.03
2018-03-22T13:07:42.466Z,29.47
2018-03-22T13:10:10.530Z,25.57
2018-03-22T13:12:38.354Z,26.60
2018-03-22T13:15:06.274Z,27.90
2018-03-22T13:17:34.442Z,28.23
2018-03-22T13:20:02.314Z,28.50
2018-03-22T13:22:30.192Z,25.70
2018-03-22T13:24:58.232Z,25.90
2018-03-22T13:27:26.750Z,26.87
2018-03-22T13:29:55.071Z,27.73
2018-03-22T13:32:23.269Z,29.73
2018-03-22T13:34:51.172Z,33.77
2018-03-22T13:37:19.125Z,28.40
2018-03-22T13:39:47.081Z,28.70
2018-03-22T13:42:14.915Z,30.27
2018-03-22T13:44:43.126Z,28.33
2018-03-22T13:47:11.296Z,27.73
2018-03-22T13:49:39.363Z,27.30
2018-03-22T13:52:07.443Z,28.17
2018-03-22T13:54:35.403Z,27.90
2018-03-22T13:57:03.503Z,27.47
2018-03-22T13:59:32.309Z,28.93
2018-03-22T14:02:01.146Z,27.63
2018-03-22T14:04:29.428Z,27.63
2018-03-22T14:06:57.186Z,28.03
2018-03-22T14:09:25.580Z,28.57
2018-03-22T14:11:53.567Z,25.67
2018-03-22T14:14:21.428Z,28.13
2018-03-22T14:16:49.285Z,25.70
2018-03-22T14:19:17.540Z,25.33
2018-03-22T14:21:45.816Z,27.37
2018-03-22T14:24:14.037Z,26.00
2018-03-22T14:26:43.377Z,22.80
2018-03-22T14:29:11.372Z,23.87
2018-03-22T14:31:39.429Z,24.70
2018-03-22T14:34:07.302Z,22.50
2018-03-22T14:36:35.178Z,23.37
2018-03-22T14:39:02.942Z,24.83
2018-03-22T14:41:31.009Z,23.43
2018-03-22T14:43:59.073Z,23.70
2018-03-22T14:46:27.033Z,24.40
2018-03-22T14:48:54.932Z,21.00
2018-03-22T14:51:22.776Z,20.70
2018-03-22T14:53:51.699Z,21.57
2018-03-22T14:56:20.571Z,24.13
2018-03-22T14:58:48.420Z,20.63
2018-03-22T15:01:16.321Z,20.03
2018-03-22T15:03:44.906Z,22.73
2018-03-22T15:06:13.549Z,23.60
2018-03-22T15:08:41.739Z,23.57
2018-03-22T15:11:09.999Z,22.57
2018-03-22T15:13:38.504Z,24.70
2018-03-22T15:16:06.624Z,22.03
2018-03-22T15:18:34.642Z,21.70
2018-03-22T15:21:03.522Z,23.43
2018-03-22T15:23:31.484Z,24.80
2018-03-22T15:25:59.665Z,21.70
2018-03-22T15:28:27.724Z,25.67
2018-03-22T15:30:56.053Z,25.23
2018-03-22T15:33:24.903Z,24.10
2018-03-22T15:35:52.963Z,24.90
2018-03-22T15:38:21.043Z,26.90
2018-03-22T15:40:49.155Z,24.07
2018-03-22T15:43:17.125Z,24.90
2018-03-22T15:45:46.204Z,27.33
2018-03-22T15:48:14.864Z,28.40
2018-03-22T15:50:43.546Z,26.63
2018-03-22T15:53:11.525Z,27.07
2018-03-22T15:55:40.203Z,27.43
2018-03-22T15:58:08.263Z,26.17
2018-03-22T16:00:36.184Z,23.37
2018-03-22T16:03:05.023Z,24.33
2018-03-22T16:05:32.912Z,26.33
2018-03-22T16:08:00.766Z,25.83
2018-03-22T16:10:28.831Z,24.83
2018-03-22T16:12:57.044Z,25.80
2018-03-22T16:15:26.003Z,25.10
2018-03-22T16:17:53.963Z,24.90
2018-03-22T16:20:23.751Z,24.70
2018-03-22T16:22:51.647Z,26.87
2018-03-22T16:25:21.066Z,26.70
2018-03-22T16:27:49.956Z,28.20
2018-03-22T16:30:18.012Z,33.20
2018-03-22T16:32:46.164Z,26.70
2018-03-22T16:35:14.463Z,25.63
2018-03-22T16:37:43.083Z,24.57
2018-03-22T16:40:11.922Z,27.20
2018-03-22T16:42:39.842Z,26.83
2018-03-22T16:45:08.480Z,26.87
2018-03-22T16:47:36.446Z,25.50
2018-03-22T16:50:05.237Z,28.53
2018-03-22T16:52:33.107Z,26.70
2018-03-22T16:55:01.273Z,29.97
2018-03-22T16:57:29.278Z,29.00
2018-03-22T16:59:58.241Z,25.90
2018-03-22T17:02:26.308Z,26.93
2018-03-22T17:04:54.271Z,26.87
2018-03-22T17:07:22.250Z,30.40
2018-03-22T17:09:50.322Z,30.33
2018-03-22T17:12:18.386Z,29.60
2018-03-22T17:14:46.252Z,29.70
2018-03-22T17:17:14.216Z,31.27
2018-03-22T17:19:43.003Z,31.27
2018-03-22T17:22:11.003Z,28.77
2018-03-22T17:24:38.829Z,29.97
2018-03-22T17:27:06.818Z,31.50
2018-03-22T17:29:35.009Z,32.17
2018-03-22T17:32:02.971Z,32.57
2018-03-22T17:34:31.438Z,31.93
2018-03-22T17:36:59.307Z,29.83
2018-03-22T17:39:27.218Z,30.50
2018-03-22T17:41:56.393Z,32.80
2018-03-22T17:44:24.371Z,33.70
2018-03-22T17:46:52.838Z,36.60
2018-03-22T17:49:21.047Z,34.93
2018-03-22T17:51:49.262Z,33.67
2018-03-22T17:54:17.122Z,30.17
2018-03-22T17:56:44.991Z,30.33
2018-03-22T17:59:12.864Z,35.83
2018-03-22T18:01:41.747Z,35.87
2018-03-22T18:04:10.128Z,33.60
2018-03-22T18:06:38.084Z,35.13
2018-03-22T18:09:06.165Z,35.30
2018-03-22T18:11:34.676Z,34.67
2018-03-22T18:14:02.540Z,34.53
2018-03-22T18:16:30.686Z,34.23
2018-03-22T18:18:59.057Z,34.10
2018-03-22T18:21:27.151Z,34.27
2018-03-22T18:23:56.579Z,33.20
2018-03-22T18:26:25.426Z,34.53
2018-03-22T18:28:53.190Z,33.67
2018-03-22T18:31:21.061Z,33.70
2018-03-22T18:33:49.130Z,33.43
2018-03-22T18:36:17.196Z,38.77
2018-03-22T18:38:45.410Z,36.33
2018-03-22T18:41:14.161Z,34.13
2018-03-22T18:43:42.259Z,33.10
2018-03-22T18:46:10.121Z,32.17
2018-03-22T18:48:38.371Z,36.40
2018-03-22T18:51:06.372Z,30.90
2018-03-22T18:53:34.223Z,34.03
2018-03-22T18:56:09.393Z,40.80
2018-03-22T18:58:38.040Z,37.97
2018-03-22T19:01:06.150Z,35.10
2018-03-22T19:03:35.319Z,32.83
2018-03-22T19:06:03.373Z,32.83
2018-03-22T19:08:31.673Z,28.70
2018-03-22T19:10:59.716Z,33.00
2018-03-22T19:13:27.814Z,34.40
2018-03-22T19:15:55.789Z,32.27
2018-03-22T19:18:24.643Z,35.57
2018-03-22T19:20:52.509Z,35.13
2018-03-22T19:23:21.303Z,36.03
2018-03-22T19:25:49.270Z,34.07
2018-03-22T19:28:17.363Z,36.27
2018-03-22T19:30:45.650Z,32.53
2018-03-22T19:33:14.405Z,37.37
2018-03-22T19:35:43.205Z,35.43
2018-03-22T19:38:11.158Z,37.70
2018-03-22T19:40:39.334Z,33.63
2018-03-22T19:43:07.126Z,36.13
2018-03-22T19:45:35.782Z,34.63
2018-03-22T19:48:03.534Z,35.17
2018-03-22T19:50:39.203Z,33.20
2018-03-22T19:53:10.777Z,36.80
2018-03-22T19:55:43.589Z,34.37
2018-03-22T19:58:11.699Z,33.93
2018-03-22T20:00:39.884Z,35.13
2018-03-22T20:03:07.848Z,36.07
2018-03-22T20:05:35.727Z,36.70
2018-03-22T20:08:03.577Z,38.60
2018-03-22T20:10:31.346Z,35.27
2018-03-22T20:12:59.171Z,35.67
2018-03-22T20:15:27.201Z,39.30
2018-03-22T20:17:55.348Z,41.73
2018-03-22T20:20:23.218Z,37.83
2018-03-22T20:22:51.094Z,39.53
2018-03-22T20:25:19.253Z,37.90
2018-03-22T20:27:47.226Z,40.37
2018-03-22T20:30:15.007Z,43.07
2018-03-22T20:32:42.881Z,44.63
2018-03-22T20:35:11.026Z,41.87
2018-03-22T20:37:40.158Z,41.03
2018-03-22T20:40:08.958Z,36.30
2018-03-22T20:42:37.597Z,35.33
2018-03-22T20:45:05.703Z,40.97
2018-03-22T20:47:34.566Z,39.57
2018-03-22T20:50:02.419Z,39.00
2018-03-22T20:52:30.199Z,39.67
2018-03-22T20:54:58.057Z,38.83
2018-03-22T20:57:26.119Z,35.53
2018-03-22T20:59:54.193Z,38.20
2018-03-22T21:02:22.090Z,35.47
2018-03-22T21:04:49.896Z,38.67
2018-03-22T21:07:17.887Z,36.63
2018-03-22T21:09:45.859Z,37.47
2018-03-22T21:12:13.735Z,37.37
2018-03-22T21:14:41.693Z,38.23
2018-03-22T21:17:09.701Z,37.07
2018-03-22T21:19:38.456Z,36.57
2018-03-22T21:22:06.452Z,35.27
2018-03-22T21:24:35.209Z,35.90
2018-03-22T21:27:03.416Z,35.80
2018-03-22T21:29:32.294Z,39.33
2018-03-22T21:32:00.397Z,37.10
2018-03-22T21:34:29.263Z,36.43
2018-03-22T21:36:57.160Z,36.83
2018-03-22T21:39:25.086Z,39.93
2018-03-22T21:42:05.031Z,35.90
2018-03-22T21:44:32.983Z,44.17
2018-03-22T21:47:12.836Z,39.27
2018-03-22T21:49:40.903Z,40.10
2018-03-22T21:55:11.243Z,42.03
2018-03-22T21:57:39.326Z,35.53
2018-03-22T22:00:07.186Z,37.73
2018-03-22T22:02:34.961Z,41.13
2018-03-22T22:05:02.859Z,39.47
2018-03-22T22:07:31.432Z,38.77
2018-03-22T22:10:00.087Z,40.27
2018-03-22T22:12:27.988Z,38.47
2018-03-22T22:14:56.668Z,36.87
2018-03-22T22:17:24.708Z,34.50
2018-03-22T22:19:52.464Z,37.80
2018-03-22T22:22:20.228Z,36.90
2018-03-22T22:24:47.925Z,35.27
2018-03-22T22:27:15.760Z,38.50
2018-03-22T22:29:43.754Z,35.57
2018-03-22T22:32:11.700Z,37.07
2018-03-22T22:34:39.772Z,36.30
2018-03-22T22:37:07.637Z,38.43
2018-03-22T22:39:35.908Z,42.70
2018-03-22T22:42:03.878Z,37.63
2018-03-22T22:44:31.642Z,36.97
2018-03-22T22:47:00.641Z,38.13
2018-03-22T22:49:28.399Z,38.70
2018-03-22T22:51:56.683Z,39.90
2018-03-22T22:54:24.452Z,36.47
2018-03-22T22:56:52.304Z,36.67
2018-03-22T22:59:20.066Z,37.90
2018-03-22T23:01:48.032Z,38.83
2018-03-22T23:04:15.928Z,39.17
2018-03-22T23:06:43.882Z,40.50
2018-03-22T23:09:11.639Z,42.47
2018-03-22T23:11:39.600Z,45.63
2018-03-22T23:14:07.673Z,39.87
2018-03-22T23:16:35.639Z,40.37
2018-03-22T23:19:03.813Z,39.10
2018-03-22T23:21:31.783Z,39.87
2018-03-22T23:23:59.958Z,38.00
2018-03-22T23:26:27.718Z,39.77
2018-03-22T23:28:56.652Z,41.47
2018-03-22T23:31:25.591Z,40.97
2018-03-22T23:33:53.579Z,41.90
2018-03-22T23:36:21.434Z,43.30
2018-03-22T23:38:49.413Z,39.00
2018-03-22T23:41:17.272Z,41.43
2018-03-22T23:43:45.253Z,40.40
2018-03-22T23:46:13.310Z,40.43
2018-03-22T23:48:41.491Z,43.10
2018-03-22T23:51:09.369Z,47.33
2018-03-22T23:53:37.423Z,42.20
2018-03-22T23:56:05.290Z,44.27
2018-03-22T23:58:33.458Z,41.43
